createdAt,value
2022-09-12T00:01:16.234Z,100.00
2022-09-12T00:06:44.827Z,100.00
2022-09-12T00:12:06.993Z,100.00
2022-09-12T00:17:29.141Z,100.00
2022-09-12T00:22:51.325Z,100.00
2022-09-12T00:28:13.952Z,100.00
2022-09-12T00:33:36.567Z,100.00
2022-09-12T00:38:59.983Z,100.00
2022-09-12T00:44:39.103Z,100.00
2022-09-12T00:50:09.923Z,100.00
2022-09-12T00:55:42.404Z,100.00
2022-09-12T01:01:05.324Z,100.00
2022-09-12T01:06:38.577Z,100.00
2022-09-12T01:12:03.364Z,100.00
2022-09-12T01:17:27.657Z,100.00
2022-09-12T01:23:31.675Z,100.00
2022-09-12T01:35:29.907Z,100.00
2022-09-12T01:41:24.217Z,100.00
2022-09-12T01:47:05.773Z,100.00
2022-09-12T01:52:39.336Z,100.00
2022-09-12T01:58:09.302Z,100.00
2022-09-12T02:03:46.284Z,100.00
2022-09-12T02:09:28.614Z,100.00
2022-09-12T02:14:58.510Z,100.00
2022-09-12T02:20:49.546Z,100.00
2022-09-12T02:26:01.977Z,100.00
2022-09-12T02:31:51.679Z,100.00
2022-09-12T02:37:51.490Z,100.00
2022-09-12T02:43:15.188Z,100.00
2022-09-12T02:48:43.996Z,100.00
2022-09-12T02:54:07.743Z,100.00
2022-09-12T02:59:32.338Z,100.00
2022-09-12T03:05:21.988Z,100.00
2022-09-12T03:11:11.740Z,100.00
2022-09-12T03:16:54.332Z,100.00
2022-09-12T03:22:52.263Z,100.00
2022-09-12T03:28:23.887Z,100.00
2022-09-12T03:33:46.033Z,100.00
2022-09-12T03:39:08.626Z,100.00
2022-09-12T03:44:31.681Z,100.00
2022-09-12T03:49:53.817Z,100.00
2022-09-12T03:55:16.576Z,100.00
2022-09-12T04:00:40.197Z,100.00
2022-09-12T04:06:04.294Z,100.00
2022-09-12T04:11:28.733Z,100.00
2022-09-12T04:16:50.997Z,100.00
2022-09-12T04:22:13.291Z,100.00
2022-09-12T04:27:35.479Z,100.00
2022-09-12T04:32:58.515Z,100.00
2022-09-12T04:38:21.700Z,100.00
2022-09-12T04:43:43.903Z,100.00
2022-09-12T04:49:07.056Z,100.00
2022-09-12T04:54:33.590Z,100.00
2022-09-12T04:59:57.007Z,100.00
2022-09-12T05:05:19.222Z,100.00
2022-09-12T05:10:41.733Z,100.00
2022-09-12T05:16:09.785Z,100.00
2022-09-12T05:21:35.222Z,100.00
2022-09-12T05:26:57.944Z,100.00
2022-09-12T05:32:20.991Z,100.00
2022-09-12T05:37:43.212Z,100.00
2022-09-12T05:43:05.870Z,100.00
2022-09-12T05:48:30.614Z,100.00
2022-09-12T05:53:55.188Z,100.00
2022-09-12T05:59:22.273Z,100.00
2022-09-12T06:04:44.509Z,100.00
2022-09-12T06:10:06.682Z,100.00
2022-09-12T06:15:29.236Z,100.00
2022-09-12T06:20:51.511Z,100.00
2022-09-12T06:26:14.897Z,100.00
2022-09-12T06:31:41.959Z,100.00
2022-09-12T06:37:05.556Z,100.00
2022-09-12T06:42:27.789Z,100.00
2022-09-12T06:47:52.600Z,100.00
2022-09-12T06:53:15.624Z,100.00
2022-09-12T06:58:38.799Z,94.68
2022-09-12T07:04:04.688Z,91.36
2022-09-12T07:09:30.644Z,86.71
2022-09-12T07:14:52.793Z,81.30
2022-09-12T07:20:15.219Z,78.45
2022-09-12T07:25:39.010Z,74.69
2022-09-12T07:31:01.570Z,73.89
2022-09-12T07:36:28.123Z,71.97
2022-09-12T07:41:51.670Z,71.37
2022-09-12T07:47:14.784Z,67.51
2022-09-12T07:52:37.214Z,64.94
2022-09-12T07:58:01.349Z,62.77
2022-09-12T08:03:23.740Z,62.79
2022-09-12T08:08:46.321Z,61.47
2022-09-12T08:14:10.333Z,60.71
2022-09-12T08:19:32.641Z,60.46
2022-09-12T08:24:55.260Z,61.52
2022-09-12T08:30:20.809Z,60.69
2022-09-12T08:35:43.135Z,59.36
2022-09-12T08:41:35.459Z,59.99
2022-09-12T08:47:38.870Z,57.92
2022-09-12T08:53:20.555Z,56.47
2022-09-12T08:58:46.429Z,57.12
2022-09-12T09:04:42.012Z,55.65
2022-09-12T09:10:27.840Z,53.08
2022-09-12T09:16:22.768Z,54.41
2022-09-12T09:21:50.399Z,51.68
2022-09-12T09:27:39.346Z,51.25
2022-09-12T09:32:53.588Z,51.86
2022-09-12T09:38:23.423Z,50.06
2022-09-12T09:43:45.922Z,48.89
2022-09-12T09:49:10.701Z,47.57
2022-09-12T09:54:54.509Z,47.38
2022-09-12T10:00:37.660Z,48.41
2022-09-12T10:06:10.614Z,46.71
2022-09-12T10:11:43.754Z,47.55
2022-09-12T10:17:11.166Z,46.54
2022-09-12T10:22:40.353Z,46.39
2022-09-12T10:28:06.773Z,42.79
2022-09-12T10:33:32.031Z,42.42
2022-09-12T10:38:57.524Z,43.82
2022-09-12T10:44:39.200Z,40.47
2022-09-12T10:50:01.847Z,42.04
2022-09-12T10:55:29.944Z,44.94
2022-09-12T11:00:56.740Z,46.28
2022-09-12T11:06:21.192Z,47.21
2022-09-12T11:12:07.077Z,42.13
2022-09-12T11:18:10.514Z,41.42
2022-09-12T11:24:11.936Z,44.08
2022-09-12T11:29:56.517Z,42.08
2022-09-12T11:35:59.146Z,42.77
2022-09-12T11:41:32.251Z,37.35
2022-09-12T11:46:59.743Z,39.82
2022-09-12T11:52:39.238Z,45.35
2022-09-12T11:58:07.270Z,45.75
2022-09-12T12:03:43.391Z,40.98
2022-09-12T12:09:07.173Z,41.90
2022-09-12T12:14:40.364Z,43.46
2022-09-12T12:20:12.495Z,46.66
2022-09-12T12:25:56.780Z,43.18
2022-09-12T12:31:19.627Z,42.47
2022-09-12T12:36:51.067Z,47.71
2022-09-12T12:42:18.798Z,45.80
2022-09-12T12:47:48.221Z,45.83
2022-09-12T12:53:38.231Z,41.07
2022-09-12T12:59:05.359Z,38.07
2022-09-12T13:04:36.897Z,39.88
2022-09-12T13:10:04.787Z,36.34
2022-09-12T13:15:48.293Z,36.97
2022-09-12T13:21:24.163Z,37.37
2022-09-12T13:26:49.963Z,36.57
2022-09-12T13:32:17.215Z,37.68
2022-09-12T13:37:56.084Z,38.66
2022-09-12T13:43:38.193Z,40.63
2022-09-12T13:49:01.431Z,37.89
2022-09-12T13:54:27.583Z,36.80
2022-09-12T14:00:02.287Z,35.10
2022-09-12T14:05:35.429Z,35.36
2022-09-12T14:11:00.916Z,34.85
2022-09-12T14:16:24.706Z,37.47
2022-09-12T14:21:55.075Z,40.30
2022-09-12T14:27:19.241Z,37.99
2022-09-12T14:32:42.794Z,36.10
2022-09-12T14:38:15.850Z,36.10
2022-09-12T14:43:53.594Z,38.41
2022-09-12T14:49:33.573Z,40.83
2022-09-12T14:55:04.575Z,38.84
2022-09-12T15:00:33.899Z,39.33
2022-09-12T15:06:03.870Z,41.82
2022-09-12T15:11:26.019Z,41.73
2022-09-12T15:16:48.415Z,41.48
2022-09-12T15:22:10.674Z,41.31
2022-09-12T15:27:33.339Z,40.70
2022-09-12T15:32:56.753Z,40.28
2022-09-12T15:38:21.938Z,39.62
2022-09-12T15:43:43.612Z,40.33
2022-09-12T15:49:05.821Z,39.94
2022-09-12T15:54:29.992Z,40.28
2022-09-12T15:59:52.920Z,40.11
2022-09-12T16:05:17.292Z,42.17
2022-09-12T16:10:42.361Z,41.12
2022-09-12T16:16:05.325Z,41.19
2022-09-12T16:21:28.281Z,40.03
2022-09-12T16:26:50.432Z,43.95
2022-09-12T16:32:13.337Z,45.72
2022-09-12T16:37:36.338Z,48.58
2022-09-12T16:42:59.286Z,51.99
2022-09-12T16:48:21.897Z,54.02
2022-09-12T16:53:45.820Z,57.88
2022-09-12T16:59:10.058Z,59.74
2022-09-12T17:04:32.757Z,60.86
2022-09-12T17:09:55.365Z,63.48
2022-09-12T17:15:17.824Z,65.23
2022-09-12T17:20:41.682Z,65.73
2022-09-12T17:26:07.468Z,63.59
2022-09-12T17:31:30.971Z,61.30
2022-09-12T17:36:55.026Z,60.94
2022-09-12T17:42:17.412Z,62.14
2022-09-12T17:47:43.564Z,61.86
2022-09-12T17:53:06.776Z,62.08
2022-09-12T17:58:28.949Z,63.19
2022-09-12T18:03:52.569Z,63.32
2022-09-12T18:09:16.849Z,63.58
2022-09-12T18:14:40.762Z,64.51
2022-09-12T18:20:03.266Z,64.76
2022-09-12T18:25:25.960Z,63.42
2022-09-12T18:30:48.795Z,62.54
2022-09-12T18:36:12.939Z,61.74
2022-09-12T18:41:36.909Z,62.23
2022-09-12T18:47:00.387Z,62.14
2022-09-12T18:52:22.594Z,62.41
2022-09-12T18:57:44.923Z,64.48
2022-09-12T19:03:08.564Z,66.78
2022-09-12T19:08:31.557Z,69.26
2022-09-12T19:13:57.375Z,70.29
2022-09-12T19:19:19.995Z,71.52
2022-09-12T19:24:42.619Z,72.40
2022-09-12T19:30:05.257Z,73.19
2022-09-12T19:35:28.198Z,74.20
2022-09-12T19:40:50.587Z,74.70
2022-09-12T19:46:13.794Z,74.87
2022-09-12T19:51:37.212Z,74.98
2022-09-12T19:56:59.459Z,75.41
2022-09-12T20:02:22.101Z,75.92
2022-09-12T20:07:44.297Z,76.20
2022-09-12T20:13:06.564Z,76.45
2022-09-12T20:18:29.514Z,76.77
2022-09-12T20:23:52.188Z,77.02
2022-09-12T20:29:15.251Z,78.03
2022-09-12T20:34:38.778Z,80.06
2022-09-12T20:40:01.897Z,81.88
2022-09-12T20:45:24.408Z,83.07
2022-09-12T20:50:46.569Z,84.11
2022-09-12T20:56:10.119Z,85.48
2022-09-12T21:01:34.742Z,86.28
2022-09-12T21:06:57.169Z,86.78
2022-09-12T21:12:19.443Z,87.73
2022-09-12T21:17:41.624Z,89.40
2022-09-12T21:23:04.083Z,91.36
2022-09-12T21:28:26.284Z,93.13
2022-09-12T21:33:48.504Z,95.50
2022-09-12T21:39:11.432Z,97.19
2022-09-12T21:44:33.577Z,98.55
2022-09-12T21:49:55.716Z,99.89
2022-09-12T21:55:19.177Z,100.00
2022-09-12T22:00:42.093Z,100.00
2022-09-12T22:06:06.714Z,100.00
2022-09-12T22:11:29.306Z,100.00
2022-09-12T22:16:52.225Z,100.00
2022-09-12T22:22:32.209Z,100.00
2022-09-12T22:27:54.406Z,100.00
2022-09-12T22:33:16.968Z,100.00
2022-09-12T22:38:39.147Z,100.00
2022-09-12T22:44:01.276Z,100.00
2022-09-12T22:49:23.955Z,100.00
2022-09-12T22:54:46.094Z,100.00
2022-09-12T23:00:10.370Z,100.00
2022-09-12T23:05:32.678Z,100.00
2022-09-12T23:10:55.360Z,100.00
2022-09-12T23:16:21.346Z,100.00
2022-09-12T23:21:44.180Z,100.00
2022-09-12T23:27:06.491Z,100.00
2022-09-12T23:32:28.767Z,100.00
2022-09-12T23:37:50.871Z,100.00
2022-09-12T23:43:12.990Z,100.00
2022-09-12T23:48:35.144Z,100.00
2022-09-12T23:53:57.568Z,100.00
2022-09-12T23:59:20.057Z,100.00
